Αρχική σελίδα
METAR-TAF:

METAR-TAF

Αεροδρόμια :

Γιβραλτάρ, Γιβραλτάρ

γεωγραφικό πλάτος: 36-09N, γεωγραφικό μήκος: 005-21W, υψόμετρο: 5 μ

Παρών καιρός

Η αναφορά έγινε 44 λεπτά πριν, στις 16:50 UTC
Άνεμος 6 kt από Α/BA
Θερμοκρασία 22°C
Υγρασία 78%
Πίεση 1018 hPa
Ορατότητα 10 χλμ και άνω
Λίγα νέφη σε ύψος 1800 πόδια
Διάσπαρτα νέφη σε ύψος 25000 πόδια

METAR: LXGB 181650Z 07006KT 9999 FEW018 SCT250 22/18 Q1018 NOSIG

Χρόνος: 19:34 (17:34 UTC)

Πρόγνωση Καιρού

Η αναφορά έγινε 3 ώρες και 46 λεπτά πριν, στις 13:48 UTC
Η πρόγνωση ισχύει από τις 18 στις 15 UTC έως τις 18 στις 22 UTC
Άνεμος 12 kt από Α
Ορατότητα 10 χλμ και άνω
Λίγα νέφη σε ύψος 1200 πόδια
Πιθανότητα 30% :
Προσωρινά
από 18 στις 15 UTC έως τις 18 στις 18 UTC
Άνεμος 16 kt από ΝA

TAF: LXGB 181348Z 1815/1822 10012KT 9999 FEW012 PROB30 TEMPO 1815/1818 14016KT 520002

Μετεωρολογικές αναφορές και προγνώσεις για περισσότερα από 4000 αεροδρόμια (δελτία METAR και TAF).

Οι διαθέσιμοι σταθμοί απεικονίζονται στο χάρτη με κίτρινες και κόκκινες κουκκίδες.

Μετακινήστε το ποντίκι πάνω από τις κουκκίδες για να δείτε το όνομα του σταθμού.

Στη συνέχεια, κάντε κλικ για να δείτε τις μετεωρολογικές αναφορές και τις προγνώσεις καιρού.

Για να αλλάξετε το χάρτη: κάντε κλικ στα πράσινα κουμπιά με τον μαύρο σταυρό για να ζουμάρετε, στο πράσινο κουμπί με την παύλα για να αφαιρέσετε το ζουμ ή στα πράσινα βέλη για να αντιπαραβάλλετε χάρτες.


METAR-TAF: